Data for 02/20/2007

Time Sea-Level Adjusted Pressure Absolute Pressure Temperature Relative Humidity Dew Point   
(mb) (inHg) (mb) (inHg) (C) (F) (%) (C) (F)
00:05 1006 29.71 835 24.66 0.2 32.4 49 -9.4 15.1
00:10 1006 29.71 835 24.66 1.3 34.4 47 -8.8 16.2
00:15 1006 29.71 835 24.66 1.7 35.1 43 -9.6 14.7
00:20 1006 29.71 835 24.66 2 35.6 45 -8.8 16.2
00:25 1006 29.71 835 24.66 1.9 35.4 46 -8.6 16.5
00:30 1006 29.71 835 24.66 1.9 35.4 46 -8.6 16.5
00:35 1006 29.71 835 24.66 2 35.6 45 -8.8 16.1
00:40 1006 29.71 835 24.66 2 35.6 47 -8.1 17.4
00:45 1006 29.71 835 24.66 2 35.5 45 -8.6 16.5
00:50 1006 29.71 835 24.66 2 35.5 45 -8.9 16.1
00:55 1006 29.71 835 24.66 2.1 35.7 45 -8.6 16.5
01:00 1006 29.71 835 24.66 2.1 35.8 45 -8.6 16.6
01:05 1006 29.71 835 24.66 2 35.6 46 -8.4 16.9
01:10 1005 29.68 835 24.66 1.9 35.5 45 -8.7 16.3
01:15 1005 29.68 835 24.66 1.8 35.3 47 -8.2 17.2
01:20 1005 29.68 835 24.66 1.7 35.1 48 -8.3 17.1
01:25 1005 29.68 835 24.66 1.7 35.1 47 -8.3 17
01:30 1005 29.68 835 24.66 1.7 35.1 48 -8.2 17.3
01:35 1006 29.71 835 24.66 1.6 34.9 48 -8.3 17.1
01:40 1006 29.71 835 24.66 1.7 35 47 -8.5 16.7
01:45 1006 29.71 835 24.66 1.9 35.4 49 -7.8 17.9
01:50 1006 29.71 835 24.66 1.8 35.3 47 -8.3 17.1
01:55 1006 29.71 835 24.66 1.8 35.3 48 -8.1 17.5
02:00 1006 29.71 835 24.66 1.7 35 48 -8.1 17.5
02:05 1006 29.71 835 24.66 1.7 35 49 -7.9 17.8
02:10 1006 29.71 835 24.66 1.5 34.8 50 -7.9 17.8
02:15 1006 29.71 835 24.66 1.5 34.8 50 -7.7 18.1
02:20 1006 29.71 835 24.66 1.6 34.8 50 -7.9 17.8
02:25 1005 29.68 835 24.66 1.7 35.1 50 -7.7 18.2
02:30 1005 29.68 835 24.66 1.8 35.2 50 -7.7 18.2
02:35 1005 29.68 835 24.66 1.8 35.3 51 -7.3 18.8
02:40 1005 29.68 835 24.66 1.6 34.9 51 -7.6 18.4
02:45 1005 29.68 835 24.66 1.9 35.4 48 -7.9 17.8
02:50 1005 29.68 834 24.63 2.1 35.7 48 -7.7 18.1
02:55 1005 29.68 835 24.66 2.2 35.9 48 -7.8 18
03:00 1005 29.68 834 24.63 2.2 36 48 -7.7 18.1
03:05 1005 29.68 834 24.63 2.2 35.9 49 -7.4 18.7
03:10 1005 29.68 834 24.63 2.1 35.7 50 -7.3 18.9
03:15 1005 29.68 834 24.63 2.1 35.8 49 -7.6 18.4
03:20 1005 29.68 834 24.63 2.5 36.4 47 -7.7 18.1
03:25 1005 29.68 834 24.63 2.7 36.8 46 -7.9 17.8
03:30 1005 29.68 835 24.66 2.8 37.1 46 -7.8 18
03:35 1005 29.68 835 24.66 2.9 37.3 46 -7.6 18.3
03:40 1005 29.68 834 24.63 2.9 37.2 47 -7.3 18.9
03:45 1005 29.68 835 24.66 2.9 37.1 47 -7.5 18.6
03:50 1005 29.68 835 24.66 2.8 37.1 47 -7.2 19
03:55 1006 29.71 835 24.66 2.7 36.9 51 -6.5 20.3
04:00 1005 29.68 835 24.66 2.7 36.8 50 -6.6 20.1
04:05 1006 29.71 835 24.66 2.7 36.8 50 -6.8 19.7
04:10 1006 29.71 835 24.66 2.7 36.8 50 -6.7 19.9
04:15 1006 29.71 835 24.66 2.7 36.9 51 -6.4 20.4
04:20 1006 29.71 835 24.66 2.6 36.7 51 -6.4 20.4
04:25 1006 29.71 835 24.66 2.6 36.7 51 -6.6 20.2
04:30 1006 29.71 835 24.66 2.7 36.8 51 -6.5 20.4
04:35 1006 29.71 835 24.66 2.6 36.8 52 -6.3 20.6
04:40 1006 29.71 835 24.66 2.6 36.7 52 -6.2 20.8
04:45 1006 29.71 835 24.66 2.6 36.6 52 -6.3 20.7
04:50 1006 29.71 835 24.66 2.6 36.7 51 -6.6 20.2
04:55 1006 29.71 835 24.66 2.8 37.1 48 -7 19.4
05:00 1006 29.71 835 24.66 3.1 37.5 46 -7.5 18.6
05:05 1006 29.71 835 24.66 3.2 37.8 48 -6.8 19.8
05:10 1006 29.71 835 24.66 3.3 37.9 46 -7.2 19
05:15 1006 29.71 835 24.66 3.4 38.1 46 -7.1 19.2
05:20 1006 29.71 835 24.66 3.3 38 48 -6.5 20.3
05:25 1006 29.71 835 24.66 3 37.4 50 -6.4 20.6
05:30 1006 29.71 835 24.66 3 37.5 50 -6.5 20.3
05:35 1005 29.68 835 24.66 3.1 37.6 50 -6.4 20.5
05:40 1005 29.68 835 24.66 3.2 37.7 49 -6.7 20
05:45 1005 29.68 835 24.66 3.3 38 48 -6.7 20
05:50 1005 29.68 834 24.63 3.4 38.1 49 -6.4 20.5
05:55 1005 29.68 834 24.63 3.4 38.2 49 -6.3 20.6
06:00 1005 29.68 834 24.63 3.4 38.1 49 -6.4 20.4
06:05 1005 29.68 834 24.63 3.4 38.2 48 -6.4 20.4
06:10 1005 29.68 834 24.63 3.5 38.3 49 -6.3 20.6
06:15 1005 29.68 834 24.63 3.6 38.6 47 -6.7 19.9
06:20 1005 29.68 834 24.63 3.8 38.8 46 -6.7 20
06:25 1005 29.68 835 24.66 3.8 38.8 46 -6.8 19.8
06:30 1005 29.68 835 24.66 3.8 38.9 47 -6.4 20.5
06:35 1005 29.68 835 24.66 3.8 38.8 48 -6.3 20.7
06:40 1005 29.68 835 24.66 3.7 38.6 49 -6.1 21.1
06:45 1005 29.68 835 24.66 3.6 38.5 50 -5.9 21.4
06:50 1005 29.68 835 24.66 3.5 38.4 50 -6 21.2
06:55 1005 29.68 835 24.66 3.5 38.3 48 -6.6 20.2
07:00 1005 29.68 835 24.66 3.7 38.6 46 -7 19.4
07:05 1006 29.71 835 24.66 3.8 38.8 46 -6.6 20
07:10 1006 29.71 835 24.66 3.6 38.4 48 -6.3 20.6
07:15 1006 29.71 835 24.66 3.4 38.1 48 -6.7 19.9
07:20 1006 29.71 835 24.66 3.5 38.3 46 -7.1 19.2
07:25 1005 29.68 835 24.66 3.6 38.6 45 -7.2 19.1
07:30 1005 29.68 834 24.63 3.8 38.8 45 -7 19.3
07:35 1005 29.68 834 24.63 3.8 38.9 45 -7 19.4
07:40 1005 29.68 834 24.63 3.7 38.7 46 -6.8 19.8
07:45 1005 29.68 835 24.66 3.7 38.7 46 -7 19.4
07:50 1005 29.68 835 24.66 3.8 38.9 46 -6.8 19.8
07:55 1005 29.68 835 24.66 3.8 38.8 46 -6.8 19.8
08:00 1006 29.71 835 24.66 3.6 38.4 47 -6.7 20
08:05 1006 29.71 835 24.66 3.5 38.3 46 -6.9 19.6
08:10 1005 29.68 835 24.66 3.5 38.4 46 -7.1 19.2
08:15 1005 29.68 835 24.66 3.7 38.6 45 -7 19.3
08:20 1005 29.68 835 24.66 3.8 38.8 45 -7.1 19.3
08:25 1005 29.68 835 24.66 3.6 38.4 46 -7 19.4
08:30 1005 29.68 835 24.66 3.6 38.5 45 -7.2 19.1
08:35 1005 29.68 835 24.66 3.7 38.7 44 -7.3 18.8
08:40 1005 29.68 835 24.66 3.8 38.9 45 -7.1 19.2
08:45 1005 29.68 835 24.66 3.8 38.8 46 -6.8 19.7
08:50 1006 29.71 835 24.66 3.3 38 49 -6.5 20.3
08:55 1006 29.71 835 24.66 2.8 37 52 -6.2 20.9
09:00 1006 29.71 835 24.66 2.3 36.1 53 -6.2 20.8
09:05 1006 29.71 835 24.66 2.3 36.2 53 -6.3 20.6
09:10 1006 29.71 835 24.66 2.5 36.5 52 -6.4 20.5
09:15 1006 29.71 835 24.66 2.6 36.6 52 -6.3 20.7
09:20 1006 29.71 835 24.66 2.7 36.8 51 -6.5 20.4
09:25 1006 29.71 835 24.66 2.9 37.1 49 -6.7 19.9
09:30 1006 29.71 835 24.66 3 37.4 52 -6 21.2
09:35 1006 29.71 835 24.66 3.2 37.7 49 -6.7 20
09:40 1006 29.71 835 24.66 3.3 38 48 -6.7 19.9
09:45 1006 29.71 835 24.66 3.4 38.1 49 -6.4 20.4
09:50 1006 29.71 835 24.66 3.3 37.9 50 -6.2 20.9
09:55 1006 29.71 835 24.66 3.4 38.1 51 -5.9 21.4
10:00 1006 29.71 835 24.66 3.3 37.9 50 -6.3 20.7
10:05 1006 29.71 835 24.66 3.5 38.2 47 -6.7 19.9
10:10 1006 29.71 836 24.69 3.7 38.7 47 -6.6 20
10:15 1006 29.71 836 24.69 4.1 39.3 47 -6.4 20.6
10:20 1006 29.71 836 24.69 4.5 40.1 45 -6.3 20.7
10:25 1006 29.71 835 24.66 5 41 44 -6.2 20.8
10:30 1006 29.71 835 24.66 5.3 41.5 40 -7.4 18.8
10:35 1006 29.71 835 24.66 4.7 40.5 45 -6.1 21
10:40 1006 29.71 835 24.66 4.7 40.5 45 -6.2 20.9
10:45 1006 29.71 835 24.66 5.2 41.4 43 -6.5 20.3
10:50 1006 29.71 835 24.66 5.8 42.5 39 -7 19.4
10:55 1006 29.71 835 24.66 5.7 42.2 39 -7.2 19
11:00 1006 29.71 835 24.66 5.2 41.4 42 -6.6 20.2
11:05 1006 29.71 835 24.66 4.9 40.8 42 -7.1 19.3
11:10 1006 29.71 835 24.66 4.5 40.1 45 -6.5 20.4
11:15 1006 29.71 835 24.66 4.5 40.1 44 -6.6 20.1
11:20 1005 29.68 835 24.66 4.8 40.6 41 -7.3 18.9
11:25 1006 29.71 835 24.66 4.8 40.7 41 -7.4 18.7
11:30 1006 29.71 835 24.66 5.1 41.2 43 -6.4 20.5
11:35 1006 29.71 835 24.66 5.3 41.6 40 -7.3 18.9
11:40 1006 29.71 835 24.66 5 41.1 40 -7.4 18.8
11:45 1006 29.71 835 24.66 4.9 40.8 44 -6.4 20.5
11:50 1006 29.71 835 24.66 4.7 40.5 43 -6.7 19.9
11:55 1006 29.71 835 24.66 4.8 40.6 42 -7.1 19.2
12:00 1005 29.68 835 24.66 4.8 40.7 40 -7.6 18.4
12:05 1005 29.68 835 24.66 5.1 41.2 38 -7.9 17.7
12:10 1005 29.68 835 24.66 5.1 41.2 43 -6.4 20.4
12:15 1005 29.68 834 24.63 5.1 41.1 42 -6.9 19.5
12:20 1005 29.68 834 24.63 5.5 41.9 41 -6.8 19.8
12:25 1005 29.68 834 24.63 7.2 44.9 35 -7.1 19.2
12:30 1005 29.68 834 24.63 8.3 46.9 32 -7.5 18.5
12:35 1005 29.68 834 24.63 8.3 46.9 33 -7.1 19.2
12:40 1005 29.68 834 24.63 8.5 47.3 33 -7 19.4
12:45 1005 29.68 834 24.63 8.4 47.1 32 -7.4 18.7
12:50 1004 29.65 834 24.63 8.7 47.6 32 -7 19.3
12:55 1004 29.65 834 24.63 8.5 47.3 33 -6.9 19.6
13:00 1004 29.65 834 24.63 8.3 46.9 33 -7 19.3
13:05 1004 29.65 834 24.63 8.1 46.7 35 -6.5 20.4
13:10 1004 29.65 833 24.6 7.7 45.9 35 -6.7 20
13:15 1004 29.65 833 24.6 7.1 44.7 36 -7.1 19.3
13:20 1004 29.65 833 24.6 6.8 44.3 34 -7.9 17.8
13:25 1004 29.65 834 24.63 6.5 43.7 36 -7.5 18.6
13:30 1004 29.65 833 24.6 6.4 43.5 36 -7.7 18.1
13:35 1004 29.65 833 24.6 6.4 43.6 37 -7.1 19.2
13:40 1004 29.65 833 24.6 6.7 44.1 35 -7.8 18
13:45 1004 29.65 833 24.6 7.4 45.3 33 -7.7 18.2
13:50 1004 29.65 833 24.6 7.9 46.1 33 -7.6 18.4
13:55 1004 29.65 833 24.6 7.9 46.3 34 -7 19.3
14:00 1004 29.65 833 24.6 8.6 47.5 33 -6.7 20
14:05 1004 29.65 833 24.6 8.7 47.6 32 -7 19.3
14:10 1004 29.65 833 24.6 7.8 46 34 -7.3 18.9
14:15 1004 29.65 833 24.6 7.2 45 34 -7.4 18.6
14:20 1004 29.65 833 24.6 6.8 44.3 36 -7.1 19.1
14:25 1004 29.65 833 24.6 6.6 43.8 34 -8.1 17.4
14:30 1004 29.65 833 24.6 6.5 43.6 37 -7.2 19.1
14:35 1004 29.65 833 24.6 6.8 44.3 37 -6.7 20
14:40 1004 29.65 833 24.6 6.9 44.4 34 -7.7 18.1
14:45 1004 29.65 833 24.6 6.9 44.5 34 -7.7 18.2
14:50 1004 29.65 833 24.6 7 44.5 35 -7.4 18.7
14:55 1004 29.65 833 24.6 7.1 44.7 36 -7.1 19.2
15:00 1004 29.65 833 24.6 6.9 44.5 34 -7.8 18
15:05 1004 29.65 833 24.6 7.2 45 36 -6.9 19.6
15:10 1003 29.62 833 24.6 6.9 44.4 38 -6.5 20.2
15:15 1003 29.62 832 24.57 6.6 43.8 37 -6.9 19.5
15:20 1003 29.62 832 24.57 6.6 43.8 35 -7.7 18.1
15:25 1003 29.62 832 24.57 6.5 43.7 37 -7.3 18.9
15:30 1003 29.62 832 24.57 6.9 44.4 39 -6.3 20.7
15:35 1003 29.62 832 24.57 6.5 43.7 40 -6.1 20.9
15:40 1003 29.62 832 24.57 6 42.9 41 -6.2 20.9
15:45 1003 29.62 832 24.57 5.8 42.4 42 -6.2 20.8
15:50 1003 29.62 832 24.57 5.6 42.2 42 -6.4 20.4
15:55 1003 29.62 832 24.57 5.4 41.8 42 -6.6 20.2
16:00 1003 29.62 832 24.57 5.4 41.8 42 -6.4 20.5
16:05 1003 29.62 832 24.57 5.3 41.5 42 -6.6 20.1
16:10 1003 29.62 832 24.57 5.1 41.3 41 -6.9 19.5
16:15 1003 29.62 832 24.57 5.2 41.3 42 -6.7 20
16:20 1003 29.62 832 24.57 5 41 43 -6.6 20.1
16:25 1003 29.62 832 24.57 5 41.1 41 -7.2 19
16:30 1003 29.62 832 24.57 5 41 44 -6.3 20.6
16:35 1003 29.62 832 24.57 4.9 40.8 43 -6.5 20.3
16:40 1003 29.62 832 24.57 5 41 43 -6.5 20.2
16:45 1003 29.62 832 24.57 5.3 41.6 43 -6.2 20.8
16:50 1003 29.62 832 24.57 5.5 41.9 44 -5.9 21.5
16:55 1003 29.62 832 24.57 5.7 42.2 40 -6.9 19.6
17:00 1003 29.62 832 24.57 5.9 42.5 39 -7.1 19.2
17:05 1003 29.62 832 24.57 6.3 43.3 39 -6.6 20.1
17:10 1003 29.62 832 24.57 6.2 43.2 40 -6.4 20.5
17:15 1003 29.62 832 24.57 6 42.8 41 -6.3 20.6
17:20 1003 29.62 832 24.57 5.8 42.4 41 -6.5 20.4
17:25 1003 29.62 832 24.57 5.6 42.2 42 -6.4 20.5
17:30 1003 29.62 832 24.57 5.3 41.5 43 -6.4 20.5
17:35 1003 29.62 832 24.57 5.1 41.2 44 -6.3 20.7
17:40 1003 29.62 832 24.57 4.9 40.9 45 -6 21.2
17:45 1003 29.62 832 24.57 4.7 40.5 45 -6.3 20.7
17:50 1003 29.62 832 24.57 4.7 40.4 45 -6.2 20.8
17:55 1003 29.62 832 24.57 4.7 40.4 44 -6.5 20.3
18:00 1003 29.62 832 24.57 4.6 40.3 46 -6 21.2
18:05 1003 29.62 832 24.57 4.4 39.9 46 -6.1 21
18:10 1003 29.62 832 24.57 4.4 39.8 46 -6.3 20.7
18:15 1003 29.62 832 24.57 4.3 39.7 46 -6.4 20.4
18:20 1003 29.62 832 24.57 4.3 39.8 47 -6.1 21
18:25 1003 29.62 832 24.57 4.3 39.8 47 -5.9 21.3
18:30 1003 29.62 832 24.57 4.2 39.6 47 -6 21.2
18:35 1003 29.62 833 24.6 4.3 39.8 48 -5.8 21.6
18:40 1003 29.62 833 24.6 4.1 39.4 51 -5.2 22.6
18:45 1004 29.65 833 24.6 4 39.2 50 -5.5 22.1
18:50 1004 29.65 833 24.6 4.2 39.6 54 -4.3 24.2
18:55 1003 29.62 833 24.6 4.6 40.3 52 -4.3 24.2
19:00 1003 29.62 832 24.57 4.6 40.3 56 -3.4 25.8
19:05 1003 29.62 833 24.6 4.3 39.8 58 -3.2 26.2
19:10 1004 29.65 833 24.6 4.1 39.3 58 -3.5 25.7
19:15 1004 29.65 833 24.6 4.1 39.4 58 -3.5 25.7
19:20 1004 29.65 833 24.6 4 39.2 59 -3.2 26.2
19:25 1003 29.62 833 24.6 3.8 38.9 61 -3 26.5
19:30 1003 29.62 833 24.6 3.7 38.6 63 -2.8 27
19:35 1003 29.62 833 24.6 3.6 38.5 63 -2.8 27
19:40 1003 29.62 833 24.6 3.6 38.5 61 -3.2 26.3
19:45 1004 29.65 833 24.6 3.7 38.7 60 -3.4 25.9
19:50 1004 29.65 833 24.6 4 39.1 55 -4.4 24.1
19:55 1004 29.65 833 24.6 4.6 40.3 49 -5.2 22.7
20:00 1004 29.65 833 24.6 4.9 40.8 50 -4.7 23.6
20:05 1004 29.65 833 24.6 4.6 40.3 52 -4.4 24.1
20:10 1004 29.65 833 24.6 4.5 40.1 51 -4.8 23.3
20:15 1004 29.65 833 24.6 4.6 40.3 49 -5.3 22.5
20:20 1004 29.65 833 24.6 4.8 40.6 48 -5.3 22.4
20:25 1004 29.65 833 24.6 4.8 40.6 48 -5.4 22.3
20:30 1004 29.65 833 24.6 4.7 40.4 48 -5.5 22.2
20:35 1003 29.62 833 24.6 4.7 40.5 49 -5.1 22.7
20:40 1003 29.62 833 24.6 4.8 40.6 49 -4.9 23.1
20:45 1004 29.65 833 24.6 4.7 40.5 51 -4.6 23.8
20:50 1004 29.65 833 24.6 4.6 40.2 54 -4 24.8
20:55 1004 29.65 833 24.6 4.3 39.7 56 -3.8 25.1
21:00 1004 29.65 833 24.6 4 39.3 56 -3.9 25
21:05 1004 29.65 833 24.6 4 39.2 56 -4 24.7
21:10 1004 29.65 833 24.6 4.1 39.3 57 -3.8 25.2
21:15 1004 29.65 834 24.63 3.7 38.7 65 -2.3 27.8
21:20 1005 29.68 834 24.63 1.4 34.6 80 -1.6 29.2
21:25 1006 29.71 835 24.66 -0.1 31.8 88 -1.9 28.5
21:30 1006 29.71 835 24.66 -0.9 30.5 92 -2 28.5
21:35 1006 29.71 835 24.66 -1.3 29.6 95 -2.1 28.3
21:40 1006 29.71 835 24.66 -1.5 29.4 95 -2.1 28.2
21:45 1006 29.71 835 24.66 -1.5 29.2 96 -2 28.3
21:50 1006 29.71 835 24.66 -1.6 29.1 97 -2.1 28.3
21:55 1006 29.71 836 24.69 -1.6 29.1 97 -2 28.4
22:00 1007 29.74 836 24.69 -1.7 29 98 -2 28.4
22:05 1007 29.74 836 24.69 -1.8 28.7 98 -2.1 28.2
22:10 1007 29.74 836 24.69 -1.9 28.6 98 -2.2 28.1
22:15 1007 29.74 836 24.69 -1.9 28.6 98 -2.2 28.1
22:20 1007 29.74 836 24.69 -1.9 28.5 98 -2.2 28.1
22:25 1007 29.74 837 24.72 -2 28.5 98 -2.2 28
22:30 1007 29.74 837 24.72 -1.9 28.5 98 -2.2 28.1
22:35 1008 29.77 837 24.72 -1.9 28.5 99 -2.1 28.2
22:40 1008 29.77 837 24.72 -1.9 28.6 99 -2.1 28.2
22:45 1008 29.77 837 24.72 -1.9 28.7 98 -2.1 28.3
22:50 1008 29.77 837 24.72 -1.8 28.7 98 -2.1 28.3
22:55 1008 29.77 838 24.75 -1.8 28.8 98 -2 28.4
23:00 1008 29.77 837 24.72 -1.8 28.8 98 -2.1 28.3
23:05 1008 29.77 837 24.72 -1.8 28.7 98 -2.1 28.3
23:10 1008 29.77 838 24.75 -1.9 28.6 98 -2.2 28.1
23:15 1009 29.8 838 24.75 -1.9 28.5 98 -2.2 28
23:20 1009 29.8 838 24.75 -1.9 28.6 97 -2.3 27.9
23:25 1009 29.8 838 24.75 -2 28.4 97 -2.5 27.5
23:30 1009 29.8 838 24.75 -2.1 28.2 97 -2.6 27.3
23:35 1009 29.8 838 24.75 -2.2 28.1 95 -2.9 26.7
23:40 1009 29.8 838 24.75 -2.1 28.1 92 -3.2 26.2
23:45 1009 29.8 838 24.75 -2.2 28 93 -3.2 26.2
23:50 1009 29.8 838 24.75 -2.2 28 90 -3.6 25.6
23:55 1009 29.8 838 24.75 -2.1 28.2 88 -3.9 24.9
24:00 1009 29.8 839 24.78 -2 28.4 82 -4.7 23.5